createdAt,value
2022-11-12T00:01:49.934Z,85.82
2022-11-12T00:05:09.681Z,97.22
2022-11-12T00:08:29.282Z,92.45
2022-11-12T00:11:49.089Z,92.07
2022-11-12T00:15:09.589Z,92.72
2022-11-12T00:18:29.333Z,98.85
2022-11-12T00:21:48.696Z,90.82
2022-11-12T00:25:08.656Z,99.60
2022-11-12T00:28:31.039Z,97.60
2022-11-12T00:31:52.659Z,104.90
2022-11-12T00:35:13.938Z,93.13
2022-11-12T00:38:33.649Z,90.57
2022-11-12T00:41:52.913Z,98.07
2022-11-12T00:45:12.187Z,95.45
2022-11-12T00:48:31.393Z,92.43
2022-11-12T00:51:51.275Z,90.82
2022-11-12T00:55:11.208Z,90.93
2022-11-12T00:58:33.073Z,91.15
2022-11-12T01:01:52.884Z,88.82
2022-11-12T01:05:12.600Z,82.90
2022-11-12T01:08:32.003Z,85.90
2022-11-12T01:11:51.474Z,77.10
2022-11-12T01:15:11.011Z,86.70
2022-11-12T01:18:30.451Z,76.82
2022-11-12T01:21:49.745Z,80.53
2022-11-12T01:25:09.772Z,79.20
2022-11-12T01:28:29.539Z,65.97
2022-11-12T01:31:49.231Z,76.88
2022-11-12T01:35:08.776Z,75.57
2022-11-12T01:38:28.897Z,73.90
2022-11-12T01:41:48.875Z,75.18
2022-11-12T01:45:17.092Z,72.68
2022-11-12T01:48:56.072Z,77.80
2022-11-12T01:52:35.133Z,74.63
2022-11-12T01:55:56.448Z,72.15
2022-11-12T01:59:36.563Z,75.18
2022-11-12T02:03:01.550Z,84.28
2022-11-12T02:06:21.699Z,71.15
2022-11-12T02:09:42.190Z,72.78
2022-11-12T02:13:21.255Z,77.18
2022-11-12T02:16:46.269Z,77.78
2022-11-12T02:20:09.730Z,76.93
2022-11-12T02:23:29.160Z,82.10
2022-11-12T02:26:53.630Z,75.40
2022-11-12T02:30:13.733Z,85.65
2022-11-12T02:33:33.110Z,72.38
2022-11-12T02:36:52.303Z,72.20
2022-11-12T02:40:11.534Z,72.38
2022-11-12T02:43:31.002Z,75.32
2022-11-12T02:46:50.165Z,66.05
2022-11-12T02:50:10.419Z,71.63
2022-11-12T02:53:29.615Z,76.50
2022-11-12T02:56:48.667Z,66.65
2022-11-12T03:00:12.298Z,72.82
2022-11-12T03:03:31.380Z,69.72
2022-11-12T03:06:50.674Z,67.28
2022-11-12T03:10:10.506Z,64.88
2022-11-12T03:13:29.632Z,70.35
2022-11-12T03:16:48.747Z,72.53
2022-11-12T03:20:08.584Z,67.57
2022-11-12T03:23:28.305Z,73.90
2022-11-12T03:26:47.694Z,68.45
2022-11-12T03:30:07.697Z,77.97
2022-11-12T03:33:26.884Z,73.55
2022-11-12T03:36:45.803Z,69.65
2022-11-12T03:40:05.933Z,68.00
2022-11-12T03:43:25.103Z,69.85
2022-11-12T03:46:44.576Z,70.35
2022-11-12T03:50:04.521Z,67.93
2022-11-12T03:53:24.474Z,64.28
2022-11-12T03:56:43.936Z,74.88
2022-11-12T04:00:04.707Z,70.40
2022-11-12T04:03:23.635Z,65.35
2022-11-12T04:07:01.700Z,71.25
2022-11-12T04:10:21.265Z,73.28
2022-11-12T04:13:43.076Z,75.57
2022-11-12T04:17:20.686Z,79.35
2022-11-12T04:20:58.282Z,70.32
2022-11-12T04:25:01.729Z,78.72
2022-11-12T04:28:20.718Z,80.70
2022-11-12T04:31:39.895Z,82.15
2022-11-12T04:34:59.348Z,81.65
2022-11-12T04:38:18.595Z,77.47
2022-11-12T04:41:56.094Z,74.53
2022-11-12T04:45:15.036Z,82.93
2022-11-12T04:48:34.631Z,83.40
2022-11-12T04:52:05.498Z,90.05
2022-11-12T04:55:24.892Z,81.80
2022-11-12T04:58:46.589Z,83.85
2022-11-12T05:02:06.204Z,94.72
2022-11-12T05:05:28.571Z,85.47
2022-11-12T05:08:52.082Z,87.72
2022-11-12T05:12:11.655Z,81.68
2022-11-12T05:15:30.773Z,84.78
2022-11-12T05:18:50.545Z,86.20
2022-11-12T05:22:33.303Z,93.47
2022-11-12T05:25:52.317Z,94.38
2022-11-12T05:29:11.565Z,94.18
2022-11-12T05:32:30.737Z,98.45
2022-11-12T05:35:49.886Z,101.90
2022-11-12T05:39:09.206Z,98.75
2022-11-12T05:42:28.937Z,95.30
2022-11-12T05:45:47.996Z,104.13
2022-11-12T05:49:07.179Z,95.07
2022-11-12T05:52:26.446Z,91.43
2022-11-12T05:55:46.031Z,90.28
2022-11-12T05:59:08.308Z,91.35
2022-11-12T06:02:27.497Z,102.43
2022-11-12T06:05:46.879Z,93.82
2022-11-12T06:09:06.789Z,91.90
2022-11-12T06:12:26.455Z,86.70
2022-11-12T06:15:45.730Z,95.82
2022-11-12T06:19:05.229Z,90.63
2022-11-12T06:22:24.524Z,89.68
2022-11-12T06:25:44.114Z,90.88
2022-11-12T06:29:03.419Z,87.82
2022-11-12T06:32:22.462Z,84.13
2022-11-12T06:35:43.286Z,88.93
2022-11-12T06:39:03.437Z,93.75
2022-11-12T06:42:22.790Z,97.25
2022-11-12T06:45:41.959Z,90.50
2022-11-12T06:49:00.959Z,97.97
2022-11-12T06:52:20.088Z,90.93
2022-11-12T06:55:39.368Z,107.97
2022-11-12T06:58:59.441Z,106.55
2022-11-12T07:02:18.663Z,100.90
2022-11-12T07:05:39.215Z,98.82
2022-11-12T07:08:59.321Z,94.93
2022-11-12T07:12:18.626Z,91.07
2022-11-12T07:15:38.229Z,84.68
2022-11-12T07:18:57.352Z,84.53
2022-11-12T07:22:16.518Z,87.63
2022-11-12T07:25:35.789Z,83.13
2022-11-12T07:28:58.151Z,80.72
2022-11-12T07:32:17.080Z,88.78
2022-11-12T07:35:36.206Z,74.45
2022-11-12T07:38:55.604Z,109.18
2022-11-12T07:42:14.777Z,93.68
2022-11-12T07:45:33.905Z,86.35
2022-11-12T07:48:57.708Z,93.40
2022-11-12T07:52:16.730Z,90.03
2022-11-12T07:55:35.999Z,97.13
2022-11-12T07:58:55.530Z,95.85
2022-11-12T08:02:15.296Z,86.53
2022-11-12T08:05:34.776Z,89.95
2022-11-12T08:08:56.125Z,77.25
2022-11-12T08:12:15.632Z,84.43
2022-11-12T08:15:34.677Z,91.45
2022-11-12T08:18:53.840Z,92.20
2022-11-12T08:22:13.066Z,88.70
2022-11-12T08:25:32.687Z,93.30
2022-11-12T08:28:52.167Z,102.07
2022-11-12T08:32:11.584Z,98.40
2022-11-12T08:35:34.042Z,97.57
2022-11-12T08:38:54.468Z,90.80
2022-11-12T08:42:13.836Z,82.97
2022-11-12T08:45:37.272Z,74.20
2022-11-12T08:48:56.717Z,73.05
2022-11-12T08:52:16.034Z,75.97
2022-11-12T08:55:36.499Z,79.28
2022-11-12T08:58:55.745Z,74.22
2022-11-12T09:02:14.815Z,73.22
2022-11-12T09:05:37.394Z,70.93
2022-11-12T09:08:56.589Z,73.10
2022-11-12T09:12:19.890Z,67.93
2022-11-12T09:15:39.349Z,60.35
2022-11-12T09:18:58.623Z,76.25
2022-11-12T09:22:17.817Z,73.28
2022-11-12T09:25:37.975Z,66.75
2022-11-12T09:28:57.183Z,75.75
2022-11-12T09:32:16.223Z,67.95
2022-11-12T09:35:35.481Z,66.30
2022-11-12T09:38:54.712Z,65.88
2022-11-12T09:42:21.146Z,72.70
2022-11-12T09:45:43.930Z,66.70
2022-11-12T09:49:19.853Z,72.22
2022-11-12T09:52:43.530Z,83.88
2022-11-12T09:56:10.756Z,67.57
2022-11-12T09:59:38.267Z,74.35
2022-11-12T10:03:06.937Z,65.07
2022-11-12T10:06:40.038Z,68.13
2022-11-12T10:10:32.386Z,65.68
2022-11-12T10:14:03.524Z,63.95
2022-11-12T10:17:51.810Z,62.78
2022-11-12T10:21:35.132Z,60.13
2022-11-12T10:24:56.951Z,58.63
2022-11-12T10:28:38.579Z,57.00
2022-11-12T10:32:02.782Z,55.22
2022-11-12T10:35:24.108Z,61.60
2022-11-12T10:38:47.949Z,54.58
2022-11-12T10:42:19.766Z,53.22
2022-11-12T10:45:39.038Z,55.85
2022-11-12T10:49:24.908Z,57.35
2022-11-12T10:53:03.144Z,54.22
2022-11-12T10:56:32.067Z,52.10
2022-11-12T11:00:14.547Z,46.38
2022-11-12T11:03:48.323Z,50.10
2022-11-12T11:07:25.046Z,47.58
2022-11-12T11:10:44.123Z,57.03
2022-11-12T11:14:35.692Z,52.65
2022-11-12T11:17:55.703Z,53.15
2022-11-12T11:21:50.701Z,48.35
2022-11-12T11:25:29.884Z,51.05
2022-11-12T11:29:14.851Z,41.83
2022-11-12T11:32:39.316Z,47.83
2022-11-12T11:36:38.061Z,52.00
2022-11-12T11:40:31.179Z,45.63
2022-11-12T11:44:08.793Z,42.28
2022-11-12T11:48:02.229Z,39.00
2022-11-12T11:51:58.833Z,41.53
2022-11-12T11:55:41.231Z,49.28
2022-11-12T11:59:14.521Z,42.53
2022-11-12T12:02:45.938Z,52.85
2022-11-12T12:06:26.095Z,43.83
2022-11-12T12:10:14.268Z,44.80
2022-11-12T12:14:00.192Z,41.67
2022-11-12T12:17:59.055Z,44.60
2022-11-12T12:21:22.106Z,44.20
2022-11-12T12:24:55.028Z,45.70
2022-11-12T12:28:42.233Z,46.35
2022-11-12T12:32:38.811Z,43.72
2022-11-12T12:36:17.129Z,46.53
2022-11-12T12:39:59.106Z,43.45
2022-11-12T12:43:35.248Z,42.40
2022-11-12T12:47:01.028Z,44.88
2022-11-12T12:50:22.429Z,43.67
2022-11-12T12:53:42.012Z,43.22
2022-11-12T12:57:03.575Z,42.17
2022-11-12T13:00:39.216Z,38.55
2022-11-12T13:04:09.689Z,43.22
2022-11-12T13:07:50.044Z,38.65
2022-11-12T13:11:10.203Z,45.42
2022-11-12T13:14:35.629Z,39.42
2022-11-12T13:17:55.394Z,45.78
2022-11-12T13:21:20.478Z,42.65
2022-11-12T13:25:06.607Z,40.38
2022-11-12T13:28:26.502Z,45.90
2022-11-12T13:31:45.963Z,39.38
2022-11-12T13:35:17.495Z,44.38
2022-11-12T13:38:38.138Z,36.65
2022-11-12T13:42:27.547Z,42.85
2022-11-12T13:46:14.262Z,38.53
2022-11-12T13:52:55.091Z,35.13
2022-11-12T13:56:31.964Z,35.72
2022-11-12T14:00:22.065Z,37.97
2022-11-12T14:03:47.247Z,29.55
2022-11-12T14:07:37.490Z,28.17
2022-11-12T14:11:16.730Z,27.40
2022-11-12T14:14:58.237Z,33.25
2022-11-12T14:19:20.988Z,33.83
2022-11-12T14:22:45.403Z,36.55
2022-11-12T14:26:04.756Z,40.05
2022-11-12T14:29:23.975Z,39.03
2022-11-12T14:32:46.786Z,38.38
2022-11-12T14:36:19.243Z,37.22
2022-11-12T14:39:43.205Z,36.72
2022-11-12T14:43:02.684Z,38.60
2022-11-12T14:46:32.136Z,38.42
2022-11-12T14:49:51.750Z,42.72
2022-11-12T14:53:27.817Z,42.42
2022-11-12T14:56:49.475Z,43.33
2022-11-12T15:00:35.482Z,48.97
2022-11-12T15:04:26.068Z,44.05
2022-11-12T15:08:11.496Z,48.90
2022-11-12T15:11:43.011Z,49.40
2022-11-12T15:15:34.249Z,53.00
2022-11-12T15:19:16.083Z,51.70
2022-11-12T15:22:36.000Z,49.25
2022-11-12T15:26:02.373Z,49.13
2022-11-12T15:29:31.420Z,48.37
2022-11-12T15:33:13.901Z,53.80
2022-11-12T15:36:33.563Z,60.00
2022-11-12T15:39:59.497Z,56.38
2022-11-12T15:43:36.204Z,61.75
2022-11-12T15:46:55.925Z,69.35
2022-11-12T15:50:18.378Z,61.35
2022-11-12T15:53:37.794Z,63.67
2022-11-12T15:56:57.271Z,64.32
2022-11-12T16:00:22.806Z,70.88
2022-11-12T16:03:42.154Z,68.22
2022-11-12T16:07:01.461Z,75.38
2022-11-12T16:10:21.265Z,66.90
2022-11-12T16:13:40.533Z,68.72
2022-11-12T16:16:59.789Z,69.78
2022-11-12T16:20:27.271Z,74.20
2022-11-12T16:23:46.373Z,75.10
2022-11-12T16:27:07.741Z,78.55
2022-11-12T16:30:30.955Z,80.32
2022-11-12T16:33:50.147Z,68.22
2022-11-12T16:37:13.120Z,72.00
2022-11-12T16:40:32.478Z,72.55
2022-11-12T16:43:52.356Z,74.15
2022-11-12T16:47:11.894Z,77.75
2022-11-12T16:50:31.044Z,72.22
2022-11-12T16:53:50.685Z,74.07
2022-11-12T16:57:11.518Z,72.07
2022-11-12T17:00:31.036Z,69.68
2022-11-12T17:03:52.545Z,58.17
2022-11-12T17:07:11.874Z,70.82
2022-11-12T17:10:31.663Z,66.82
2022-11-12T17:13:51.055Z,66.53
2022-11-12T17:17:10.778Z,64.72
2022-11-12T17:20:29.955Z,63.22
2022-11-12T17:23:49.899Z,65.38
2022-11-12T17:27:09.061Z,66.93
2022-11-12T17:30:28.484Z,62.05
2022-11-12T17:33:50.826Z,69.05
2022-11-12T17:37:10.246Z,61.25
2022-11-12T17:40:29.845Z,61.22
2022-11-12T17:43:53.353Z,69.40
2022-11-12T17:47:13.397Z,68.07
2022-11-12T17:50:33.190Z,59.20
2022-11-12T17:53:53.268Z,61.78
2022-11-12T17:57:12.630Z,59.78
2022-11-12T18:00:33.272Z,55.72
2022-11-12T18:03:55.157Z,60.17
2022-11-12T18:07:14.361Z,51.95
2022-11-12T18:10:33.915Z,56.08
2022-11-12T18:13:53.474Z,59.35
2022-11-12T18:17:14.621Z,53.90
2022-11-12T18:20:34.732Z,53.40
2022-11-12T18:23:54.234Z,56.80
2022-11-12T18:27:13.986Z,58.13
2022-11-12T18:30:35.493Z,56.22
2022-11-12T18:33:55.732Z,63.83
2022-11-12T18:37:15.445Z,62.40
2022-11-12T18:40:34.823Z,67.35
2022-11-12T18:43:55.164Z,65.50
2022-11-12T18:47:14.635Z,64.72
2022-11-12T18:50:33.802Z,68.20
2022-11-12T18:53:53.147Z,75.95
2022-11-12T18:57:12.567Z,85.72
2022-11-12T19:00:31.819Z,78.50
2022-11-12T19:03:56.893Z,168.00
2022-11-12T19:07:15.933Z,70.00
2022-11-12T19:10:35.903Z,335.58
2022-11-12T19:13:56.384Z,470.90
2022-11-12T19:17:15.653Z,78.43
2022-11-12T19:20:34.676Z,512.40
2022-11-12T19:23:55.977Z,222.10
2022-11-12T19:27:15.465Z,557.35
2022-11-12T19:30:34.552Z,156.50
2022-11-12T19:33:54.417Z,272.58
2022-11-12T19:40:53.222Z,768.35
2022-11-12T19:44:12.472Z,821.38
2022-11-12T19:47:32.245Z,676.28
2022-11-12T19:50:51.457Z,514.70
2022-11-12T19:54:11.292Z,557.70
2022-11-12T19:57:30.632Z,684.90
2022-11-12T20:00:49.804Z,547.03
2022-11-12T20:04:09.660Z,613.80
2022-11-12T20:07:29.059Z,709.80
2022-11-12T20:10:48.354Z,742.85
2022-11-12T20:14:07.565Z,490.65
2022-11-12T20:17:26.926Z,183.90
2022-11-12T20:20:55.822Z,283.73
2022-11-12T20:24:15.017Z,149.80
2022-11-12T20:27:34.936Z,565.05
2022-11-12T20:31:04.824Z,493.48
2022-11-12T20:34:23.910Z,136.30
2022-11-12T20:37:43.363Z,139.52
2022-11-12T20:41:04.755Z,431.33
2022-11-12T20:44:24.347Z,480.63
2022-11-12T20:47:43.687Z,116.35
2022-11-12T20:51:23.102Z,552.22
2022-11-12T20:54:42.986Z,187.02
2022-11-12T20:58:02.085Z,196.40
2022-11-12T21:01:24.410Z,417.85
2022-11-12T21:04:44.147Z,368.80
2022-11-12T21:08:03.474Z,140.63
2022-11-12T21:11:23.671Z,118.45
2022-11-12T21:14:49.071Z,379.08
2022-11-12T21:18:10.129Z,132.88
2022-11-12T21:21:31.659Z,236.00
2022-11-12T21:24:51.289Z,244.20
2022-11-12T21:28:10.597Z,458.13
2022-11-12T21:31:30.587Z,427.42
2022-11-12T21:34:49.669Z,250.43
2022-11-12T21:38:08.990Z,449.05
2022-11-12T21:41:32.125Z,399.25
2022-11-12T21:44:51.727Z,335.67
2022-11-12T21:48:10.836Z,460.63
2022-11-12T21:51:33.040Z,484.42
2022-11-12T21:54:52.668Z,842.50
2022-11-12T21:58:12.200Z,602.15
2022-11-12T22:01:34.394Z,952.47
2022-11-12T22:04:53.659Z,331.20
2022-11-12T22:08:14.141Z,321.00
2022-11-12T22:11:33.253Z,694.50
2022-11-12T22:14:52.412Z,763.90
2022-11-12T22:18:12.120Z,663.60
2022-11-12T22:21:38.609Z,794.00
2022-11-12T22:24:59.620Z,590.22
2022-11-12T22:28:18.772Z,601.72
2022-11-12T22:31:37.861Z,541.03
2022-11-12T22:34:56.966Z,1071.90
2022-11-12T22:38:16.152Z,420.50
2022-11-12T22:41:35.382Z,663.40
2022-11-12T22:44:54.185Z,603.63
2022-11-12T22:48:13.310Z,494.92
2022-11-12T22:51:35.304Z,704.55
2022-11-12T22:54:54.605Z,552.53
2022-11-12T22:58:13.897Z,460.88
2022-11-12T23:01:35.710Z,459.13
2022-11-12T23:04:55.222Z,531.50
2022-11-12T23:08:14.933Z,491.73
2022-11-12T23:11:38.025Z,649.15
2022-11-12T23:14:56.979Z,368.63
2022-11-12T23:18:16.110Z,173.88
2022-11-12T23:21:35.130Z,740.00
2022-11-12T23:24:54.237Z,575.35
2022-11-12T23:28:13.441Z,539.60
2022-11-12T23:31:33.381Z,793.42
2022-11-12T23:34:53.482Z,375.55
2022-11-12T23:38:12.692Z,695.83
2022-11-12T23:41:32.068Z,714.63
2022-11-12T23:44:51.263Z,993.00
2022-11-12T23:48:10.699Z,661.58
2022-11-12T23:51:29.980Z,848.97
2022-11-12T23:54:49.379Z,874.45
2022-11-12T23:58:08.847Z,538.53
